createdAt,value
2022-11-24T00:01:47.940Z,99514.75
2022-11-24T00:05:49.930Z,99520.09
2022-11-24T00:09:51.899Z,99514.50
2022-11-24T00:13:55.242Z,99515.13
2022-11-24T00:18:27.344Z,99517.50
2022-11-24T00:22:57.791Z,99520.38
2022-11-24T00:26:59.329Z,99521.53
2022-11-24T00:31:02.362Z,99523.28
2022-11-24T00:35:04.901Z,99527.56
2022-11-24T00:39:14.808Z,99536.03
2022-11-24T00:43:41.205Z,99529.97
2022-11-24T00:48:32.979Z,99538.50
2022-11-24T00:52:34.725Z,99536.56
2022-11-24T00:56:36.318Z,99545.25
2022-11-24T01:00:38.011Z,99545.56
2022-11-24T01:04:39.595Z,99549.53
2022-11-24T01:08:42.280Z,99548.88
2022-11-24T01:12:43.950Z,99549.53
2022-11-24T01:16:45.882Z,99562.88
2022-11-24T01:20:47.535Z,99560.59
2022-11-24T01:24:49.165Z,99559.00
2022-11-24T01:28:55.658Z,99567.47
2022-11-24T01:32:57.335Z,99583.56
2022-11-24T01:36:58.866Z,99593.38
2022-11-24T01:41:21.946Z,99601.53
2022-11-24T01:45:41.063Z,99590.44
2022-11-24T01:49:51.327Z,99601.91
2022-11-24T01:54:00.831Z,99595.19
2022-11-24T01:58:19.283Z,99602.22
2022-11-24T02:02:21.972Z,99601.47
2022-11-24T02:06:27.866Z,99598.19
2022-11-24T02:10:29.974Z,99600.22
2022-11-24T02:14:32.177Z,99604.66
2022-11-24T02:18:34.486Z,99610.84
2022-11-24T02:22:51.122Z,99609.13
2022-11-24T02:26:53.017Z,99604.25
2022-11-24T02:30:55.404Z,99610.03
2022-11-24T02:35:07.424Z,99614.06
2022-11-24T02:39:12.362Z,99614.03
2022-11-24T02:43:18.189Z,99617.38
2022-11-24T02:47:19.840Z,99617.59
2022-11-24T02:51:21.627Z,99617.81
2022-11-24T02:55:25.065Z,99623.50
2022-11-24T02:59:26.801Z,99634.97
2022-11-24T03:03:28.822Z,99630.97
2022-11-24T03:07:30.555Z,99624.25
2022-11-24T03:11:32.771Z,99635.50
2022-11-24T03:15:35.103Z,99627.84
2022-11-24T03:19:36.744Z,99630.41
2022-11-24T03:23:38.342Z,99635.78
2022-11-24T03:27:40.052Z,99640.88
2022-11-24T03:31:41.745Z,99639.91
2022-11-24T03:35:43.487Z,99650.19
2022-11-24T03:39:45.103Z,99645.81
2022-11-24T03:43:46.663Z,99650.25
2022-11-24T03:48:48.139Z,99651.09
2022-11-24T03:52:49.756Z,99644.69
2022-11-24T03:56:51.378Z,99659.84
2022-11-24T04:00:54.621Z,99659.06
2022-11-24T04:04:56.249Z,99659.09
2022-11-24T04:08:57.893Z,99664.22
2022-11-24T04:12:59.443Z,99667.63
2022-11-24T04:17:02.634Z,99668.47
2022-11-24T04:21:04.291Z,99669.34
2022-11-24T04:25:06.915Z,99671.66
2022-11-24T04:29:09.672Z,99676.88
2022-11-24T04:33:11.511Z,99682.00
2022-11-24T04:37:13.049Z,99691.50
2022-11-24T04:41:14.736Z,99694.16
2022-11-24T04:45:16.326Z,99701.16
2022-11-24T04:49:17.954Z,99704.56
2022-11-24T04:53:19.475Z,99707.19
2022-11-24T04:57:23.943Z,99711.44
2022-11-24T05:01:25.780Z,99721.66
2022-11-24T05:05:27.515Z,99721.50
2022-11-24T05:09:54.908Z,99728.31
2022-11-24T05:13:52.955Z,99736.91
2022-11-24T05:17:55.171Z,99729.81
2022-11-24T05:21:57.834Z,99734.00
2022-11-24T05:26:01.082Z,99745.97
2022-11-24T05:30:03.314Z,99749.06
2022-11-24T05:34:04.842Z,99750.41
2022-11-24T05:38:06.572Z,99754.63
2022-11-24T05:42:27.060Z,99763.50
2022-11-24T05:46:28.654Z,99758.00
2022-11-24T05:50:30.212Z,99758.25
2022-11-24T05:54:31.994Z,99760.72
2022-11-24T05:58:33.800Z,99772.31
2022-11-24T06:02:35.623Z,99775.78
2022-11-24T06:06:37.331Z,99780.97
2022-11-24T06:10:38.915Z,99794.56
2022-11-24T06:14:40.947Z,99797.66
2022-11-24T06:18:42.644Z,99805.50
2022-11-24T06:22:44.233Z,99800.13
2022-11-24T06:26:45.954Z,99809.44
2022-11-24T06:30:47.457Z,99806.63
2022-11-24T06:34:49.221Z,99816.75
2022-11-24T06:38:50.852Z,99819.03
2022-11-24T06:42:52.633Z,99821.31
2022-11-24T06:46:56.479Z,99826.28
2022-11-24T06:50:59.975Z,99834.50
2022-11-24T06:55:01.611Z,99832.50
2022-11-24T06:59:03.215Z,99826.94
2022-11-24T07:03:04.880Z,99845.53
2022-11-24T07:07:06.852Z,99840.94
2022-11-24T07:11:10.927Z,99844.31
2022-11-24T07:15:12.654Z,99856.66
2022-11-24T07:19:14.337Z,99852.81
2022-11-24T07:23:15.985Z,99861.59
2022-11-24T07:27:17.584Z,99849.97
2022-11-24T07:31:21.848Z,99861.38
2022-11-24T07:35:23.524Z,99860.38
2022-11-24T07:39:25.900Z,99868.03
2022-11-24T07:43:28.668Z,99870.31
2022-11-24T07:47:30.410Z,99887.06
2022-11-24T07:51:32.065Z,99891.28
2022-11-24T07:55:33.535Z,99891.63
2022-11-24T07:59:35.177Z,99888.78
2022-11-24T08:03:37.292Z,99885.22
2022-11-24T08:07:39.238Z,99886.59
2022-11-24T08:11:40.780Z,99881.53
2022-11-24T08:15:42.351Z,99886.91
2022-11-24T08:19:44.287Z,99884.00
2022-11-24T08:23:46.241Z,99878.56
2022-11-24T08:33:42.610Z,99887.94
2022-11-24T08:37:45.731Z,99882.94
2022-11-24T08:41:56.659Z,99886.09
2022-11-24T08:46:17.316Z,99898.06
2022-11-24T08:50:31.630Z,99896.59
2022-11-24T08:54:36.459Z,99898.50
2022-11-24T08:58:39.701Z,99898.72
2022-11-24T09:08:06.758Z,99892.41
2022-11-24T09:12:20.267Z,99902.91
2022-11-24T09:16:30.111Z,99905.53
2022-11-24T09:20:32.262Z,99908.28
2022-11-24T09:24:36.177Z,99917.03
2022-11-24T09:28:38.150Z,99914.38
2022-11-24T09:33:30.168Z,99919.41
2022-11-24T09:38:09.628Z,99912.84
2022-11-24T09:42:19.464Z,99910.59
2022-11-24T09:46:28.528Z,99905.53
2022-11-24T09:50:57.017Z,99906.31
2022-11-24T09:55:28.014Z,99918.88
2022-11-24T09:59:31.251Z,99916.63
2022-11-24T10:03:50.481Z,99922.09
2022-11-24T10:08:21.047Z,99914.00
2022-11-24T10:12:51.509Z,99919.38
2022-11-24T10:17:18.000Z,99922.75
2022-11-24T10:21:44.083Z,99921.63
2022-11-24T10:25:52.118Z,99922.84
2022-11-24T10:29:55.539Z,99924.34
2022-11-24T10:34:30.009Z,99929.16
2022-11-24T10:38:48.515Z,99926.59
2022-11-24T10:42:51.500Z,99917.63
2022-11-24T10:46:53.138Z,99916.63
2022-11-24T10:51:06.497Z,99916.34
2022-11-24T10:55:52.809Z,99925.63
2022-11-24T10:59:56.906Z,99923.63
2022-11-24T11:04:02.584Z,99921.06
2022-11-24T11:08:45.086Z,99926.09
2022-11-24T11:12:47.456Z,99920.84
2022-11-24T11:16:57.853Z,99925.59
2022-11-24T11:21:02.897Z,99921.34
2022-11-24T11:25:23.621Z,99919.63
2022-11-24T11:34:35.227Z,99920.25
2022-11-24T11:38:40.184Z,99911.94
2022-11-24T11:43:02.377Z,99915.88
2022-11-24T11:47:16.244Z,99924.00
2022-11-24T11:51:50.160Z,99926.66
2022-11-24T11:56:24.218Z,99930.38
2022-11-24T12:00:26.650Z,99932.66
2022-11-24T12:05:01.865Z,99945.22
2022-11-24T12:09:36.233Z,99947.75
2022-11-24T12:14:25.733Z,99936.09
2022-11-24T12:18:59.001Z,99946.28
2022-11-24T12:23:31.858Z,99945.66
2022-11-24T12:27:50.216Z,99948.06
2022-11-24T12:32:19.948Z,99947.63
2022-11-24T12:36:52.417Z,99948.38
2022-11-24T12:41:41.543Z,99947.28
2022-11-24T12:46:41.355Z,99945.06
2022-11-24T12:51:33.165Z,99956.72
2022-11-24T12:56:11.524Z,99956.97
2022-11-24T13:00:31.757Z,99958.16
2022-11-24T13:05:10.273Z,99961.06
2022-11-24T13:09:15.753Z,99962.38
2022-11-24T13:13:17.826Z,99965.88
2022-11-24T13:17:58.434Z,99968.50
2022-11-24T13:22:49.861Z,99972.28
2022-11-24T13:27:13.965Z,99974.66
2022-11-24T13:31:27.963Z,99967.81
2022-11-24T13:35:30.516Z,99962.97
2022-11-24T13:39:52.999Z,99974.88
2022-11-24T13:44:16.494Z,99977.91
2022-11-24T13:49:09.189Z,99997.19
2022-11-24T13:53:42.707Z,99996.16
2022-11-24T13:58:13.158Z,99993.72
2022-11-24T14:02:23.897Z,99989.06
2022-11-24T14:07:07.996Z,100001.78
2022-11-24T14:11:17.301Z,100002.72
2022-11-24T14:15:57.888Z,100010.25
2022-11-24T14:20:22.119Z,100016.44
2022-11-24T14:24:41.659Z,100023.50
2022-11-24T14:28:47.345Z,100026.78
2022-11-24T14:33:19.444Z,100030.41
2022-11-24T14:38:15.404Z,100028.78
2022-11-24T14:42:27.284Z,100030.50
2022-11-24T14:46:29.047Z,100037.00
2022-11-24T14:50:30.685Z,100049.44
2022-11-24T14:54:36.706Z,100054.88
2022-11-24T14:58:47.128Z,100050.72
2022-11-24T15:02:53.330Z,100061.47
2022-11-24T15:07:08.259Z,100064.34
2022-11-24T15:11:11.867Z,100062.81
2022-11-24T15:15:13.480Z,100069.44
2022-11-24T15:19:16.759Z,100076.25
2022-11-24T15:23:41.776Z,100075.88
2022-11-24T15:27:45.717Z,100080.84
2022-11-24T15:31:52.577Z,100088.66
2022-11-24T15:35:55.154Z,100099.22
2022-11-24T15:40:21.743Z,100106.00
2022-11-24T15:44:23.814Z,100101.81
2022-11-24T15:49:15.707Z,100103.66
2022-11-24T15:53:24.478Z,100109.56
2022-11-24T15:57:26.407Z,100118.75
2022-11-24T16:02:33.735Z,100110.34
2022-11-24T16:07:06.799Z,100113.38
2022-11-24T16:11:35.957Z,100122.16
2022-11-24T16:15:41.249Z,100119.91
2022-11-24T16:19:43.574Z,100119.19
2022-11-24T16:29:51.686Z,100146.97
2022-11-24T16:33:53.202Z,100140.59
2022-11-24T16:37:54.983Z,100144.16
2022-11-24T16:41:56.668Z,100143.31
2022-11-24T16:46:19.153Z,100140.47
2022-11-24T16:50:22.026Z,100148.66
2022-11-24T16:54:23.921Z,100155.31
2022-11-24T16:58:25.510Z,100149.72
2022-11-24T17:02:27.188Z,100163.75
2022-11-24T17:06:29.150Z,100169.56
2022-11-24T17:10:31.007Z,100165.00
2022-11-24T17:14:32.953Z,100163.91
2022-11-24T17:18:35.455Z,100166.78
2022-11-24T17:22:36.847Z,100170.97
2022-11-24T17:26:38.517Z,100178.53
2022-11-24T17:30:40.020Z,100178.09
2022-11-24T17:34:43.976Z,100177.69
2022-11-24T17:38:45.695Z,100177.75
2022-11-24T17:42:47.517Z,100182.13
2022-11-24T17:46:49.151Z,100187.78
2022-11-24T17:51:03.338Z,100190.25
2022-11-24T17:55:05.417Z,100191.22
2022-11-24T17:59:07.237Z,100200.06
2022-11-24T18:03:08.690Z,100198.34
2022-11-24T18:07:10.340Z,100190.59
2022-11-24T18:11:24.602Z,100205.91
2022-11-24T18:15:30.606Z,100204.53
2022-11-24T18:19:32.209Z,100208.00
2022-11-24T18:23:35.922Z,100218.91
2022-11-24T18:27:37.721Z,100210.78
2022-11-24T18:31:42.019Z,100219.81
2022-11-24T18:35:44.540Z,100226.53
2022-11-24T18:39:49.336Z,100221.97
2022-11-24T18:43:50.920Z,100231.53
2022-11-24T18:47:55.175Z,100220.00
2022-11-24T18:51:59.371Z,100225.97
2022-11-24T18:56:03.578Z,100229.81
2022-11-24T19:00:06.635Z,100233.22
2022-11-24T19:04:12.678Z,100227.25
2022-11-24T19:08:16.245Z,100234.50
2022-11-24T19:12:17.786Z,100231.81
2022-11-24T19:16:23.289Z,100234.44
2022-11-24T19:20:24.848Z,100238.22
2022-11-24T19:24:26.627Z,100239.97
2022-11-24T19:28:28.312Z,100244.47
2022-11-24T19:32:31.360Z,100247.94
2022-11-24T19:36:32.827Z,100243.00
2022-11-24T19:40:34.395Z,100251.22
2022-11-24T19:44:38.265Z,100249.44
2022-11-24T19:48:45.323Z,100249.44
2022-11-24T19:52:48.045Z,100255.63
2022-11-24T19:56:49.950Z,100255.75
2022-11-24T20:00:51.772Z,100259.97
2022-11-24T20:04:53.454Z,100265.47
2022-11-24T20:09:00.212Z,100266.03
2022-11-24T20:13:04.574Z,100269.25
2022-11-24T20:17:07.018Z,100267.38
2022-11-24T20:21:19.627Z,100278.94
2022-11-24T20:25:22.502Z,100286.13
2022-11-24T20:29:24.601Z,100289.31
2022-11-24T20:33:26.638Z,100298.94
2022-11-24T20:37:29.520Z,100303.31
2022-11-24T20:41:36.173Z,100302.59
2022-11-24T20:45:40.196Z,100302.44
2022-11-24T20:49:44.593Z,100308.31
2022-11-24T20:53:46.356Z,100301.88
2022-11-24T20:57:48.240Z,100310.03
2022-11-24T21:01:51.543Z,100307.06
2022-11-24T21:05:57.228Z,100306.34
2022-11-24T21:09:58.748Z,100316.28
2022-11-24T21:14:00.786Z,100324.00
2022-11-24T21:18:03.138Z,100321.00
2022-11-24T21:22:04.856Z,100336.16
2022-11-24T21:26:13.023Z,100329.28
2022-11-24T21:30:15.384Z,100333.16
2022-11-24T21:34:18.560Z,100325.13
2022-11-24T21:38:20.278Z,100328.41
2022-11-24T21:42:21.752Z,100328.94
2022-11-24T21:46:24.416Z,100329.88
2022-11-24T21:50:25.920Z,100332.31
2022-11-24T21:54:27.672Z,100340.00
2022-11-24T21:58:29.773Z,100346.75
2022-11-24T22:02:31.411Z,100346.50
2022-11-24T22:06:33.276Z,100341.16
2022-11-24T22:10:34.956Z,100346.63
2022-11-24T22:14:40.395Z,100350.13
2022-11-24T22:18:43.816Z,100341.09
2022-11-24T22:22:50.509Z,100342.94
2022-11-24T22:27:20.623Z,100350.19
2022-11-24T22:31:24.939Z,100356.38
2022-11-24T22:35:28.243Z,100355.19
2022-11-24T22:39:29.942Z,100356.63
2022-11-24T22:44:13.713Z,100361.00
2022-11-24T22:48:19.909Z,100370.22
2022-11-24T22:52:21.658Z,100367.66
2022-11-24T22:57:13.418Z,100376.81
2022-11-24T23:01:40.913Z,100375.50
2022-11-24T23:05:42.384Z,100382.75
2022-11-24T23:10:16.064Z,100381.22
2022-11-24T23:14:17.790Z,100383.59
2022-11-24T23:18:19.373Z,100384.31
2022-11-24T23:22:55.254Z,100390.97
2022-11-24T23:26:57.079Z,100382.09
2022-11-24T23:31:03.848Z,100384.53
2022-11-24T23:35:09.699Z,100391.38
2022-11-24T23:39:15.446Z,100393.63
2022-11-24T23:43:17.794Z,100387.69
2022-11-24T23:47:57.895Z,100388.88
2022-11-24T23:52:24.726Z,100384.16
2022-11-24T23:56:33.345Z,100390.19
